sensor_id;sensor_type;location;lat;lon;timestamp;P1;durP1;ratioP1;P2;durP2;ratioP2
63394;SDS011;49531;-34.520;150.798;2023-06-24T00:00:34;0.20;;;0.20;;
63394;SDS011;49531;-34.520;150.798;2023-06-24T00:03:02;1.02;;;0.40;;
63394;SDS011;49531;-34.520;150.798;2023-06-24T00:05:33;0.80;;;0.50;;
63394;SDS011;49531;-34.520;150.798;2023-06-24T00:08:00;0.28;;;0.28;;
63394;SDS011;49531;-34.520;150.798;2023-06-24T00:10:27;0.30;;;0.30;;
63394;SDS011;49531;-34.520;150.798;2023-06-24T00:12:55;0.70;;;0.40;;
63394;SDS011;49531;-34.520;150.798;2023-06-24T00:15:22;1.10;;;0.40;;
63394;SDS011;49531;-34.520;150.798;2023-06-24T00:17:49;0.57;;;0.40;;
63394;SDS011;49531;-34.520;150.798;2023-06-24T00:20:16;0.93;;;0.40;;
63394;SDS011;49531;-34.520;150.798;2023-06-24T00:22:45;0.47;;;0.30;;
63394;SDS011;49531;-34.520;150.798;2023-06-24T00:25:14;1.15;;;0.40;;
63394;SDS011;49531;-34.520;150.798;2023-06-24T00:27:41;3.10;;;0.43;;
63394;SDS011;49531;-34.520;150.798;2023-06-24T00:30:09;0.40;;;0.40;;
63394;SDS011;49531;-34.520;150.798;2023-06-24T00:32:36;0.60;;;0.43;;
63394;SDS011;49531;-34.520;150.798;2023-06-24T00:35:04;1.98;;;0.40;;
63394;SDS011;49531;-34.520;150.798;2023-06-24T00:37:32;0.43;;;0.40;;
63394;SDS011;49531;-34.520;150.798;2023-06-24T00:39:59;0.30;;;0.30;;
63394;SDS011;49531;-34.520;150.798;2023-06-24T00:42:26;2.78;;;0.40;;
63394;SDS011;49531;-34.520;150.798;2023-06-24T00:44:53;0.30;;;0.30;;
63394;SDS011;49531;-34.520;150.798;2023-06-24T00:47:21;0.47;;;0.30;;
63394;SDS011;49531;-34.520;150.798;2023-06-24T00:49:49;1.02;;;0.30;;
63394;SDS011;49531;-34.520;150.798;2023-06-24T00:52:16;0.55;;;0.50;;
63394;SDS011;49531;-34.520;150.798;2023-06-24T00:54:43;0.30;;;0.30;;
63394;SDS011;49531;-34.520;150.798;2023-06-24T00:57:11;0.40;;;0.40;;
63394;SDS011;49531;-34.520;150.798;2023-06-24T00:59:39;0.28;;;0.28;;
63394;SDS011;49531;-34.520;150.798;2023-06-24T01:02:08;0.32;;;0.32;;
63394;SDS011;49531;-34.520;150.798;2023-06-24T01:04:36;1.15;;;0.40;;
63394;SDS011;49531;-34.520;150.798;2023-06-24T01:07:04;1.88;;;0.43;;
63394;SDS011;49531;-34.520;150.798;2023-06-24T01:09:33;0.40;;;0.40;;
63394;SDS011;49531;-34.520;150.798;2023-06-24T01:12:01;0.47;;;0.40;;
63394;SDS011;49531;-34.520;150.798;2023-06-24T01:14:29;1.00;;;0.40;;
63394;SDS011;49531;-34.520;150.798;2023-06-24T01:17:00;0.32;;;0.30;;
63394;SDS011;49531;-34.520;150.798;2023-06-24T01:19:47;0.63;;;0.30;;
63394;SDS011;49531;-34.520;150.798;2023-06-24T01:22:42;0.75;;;0.40;;
63394;SDS011;49531;-34.520;150.798;2023-06-24T01:25:40;0.40;;;0.40;;
63394;SDS011;49531;-34.520;150.798;2023-06-24T01:31:28;2.60;;;0.30;;
63394;SDS011;49531;-34.520;150.798;2023-06-24T01:34:12;0.40;;;0.40;;
63394;SDS011;49531;-34.520;150.798;2023-06-24T01:36:47;2.20;;;0.40;;
63394;SDS011;49531;-34.520;150.798;2023-06-24T01:39:22;0.30;;;0.30;;
63394;SDS011;49531;-34.520;150.798;2023-06-24T01:41:54;0.38;;;0.38;;
63394;SDS011;49531;-34.520;150.798;2023-06-24T01:44:26;0.35;;;0.35;;
63394;SDS011;49531;-34.520;150.798;2023-06-24T01:46:55;0.40;;;0.40;;
63394;SDS011;49531;-34.520;150.798;2023-06-24T01:49:24;0.43;;;0.35;;
63394;SDS011;49531;-34.520;150.798;2023-06-24T01:51:55;0.38;;;0.30;;
63394;SDS011;49531;-34.520;150.798;2023-06-24T01:54:26;1.48;;;0.43;;
63394;SDS011;49531;-34.520;150.798;2023-06-24T01:56:56;0.30;;;0.30;;
63394;SDS011;49531;-34.520;150.798;2023-06-24T01:59:27;0.30;;;0.30;;
63394;SDS011;49531;-34.520;150.798;2023-06-24T02:01:55;0.30;;;0.30;;
63394;SDS011;49531;-34.520;150.798;2023-06-24T02:04:25;0.50;;;0.40;;
63394;SDS011;49531;-34.520;150.798;2023-06-24T02:06:59;0.30;;;0.30;;
63394;SDS011;49531;-34.520;150.798;2023-06-24T02:09:28;0.35;;;0.30;;
63394;SDS011;49531;-34.520;150.798;2023-06-24T02:11:59;0.35;;;0.30;;
63394;SDS011;49531;-34.520;150.798;2023-06-24T02:14:29;0.40;;;0.40;;
63394;SDS011;49531;-34.520;150.798;2023-06-24T02:16:58;0.35;;;0.35;;
63394;SDS011;49531;-34.520;150.798;2023-06-24T02:19:29;0.65;;;0.38;;
63394;SDS011;49531;-34.520;150.798;2023-06-24T02:21:58;0.73;;;0.40;;
63394;SDS011;49531;-34.520;150.798;2023-06-24T02:24:27;0.85;;;0.30;;
63394;SDS011;49531;-34.520;150.798;2023-06-24T02:26:56;0.50;;;0.30;;
63394;SDS011;49531;-34.520;150.798;2023-06-24T02:29:25;0.55;;;0.35;;
63394;SDS011;49531;-34.520;150.798;2023-06-24T02:31:53;0.65;;;0.30;;
63394;SDS011;49531;-34.520;150.798;2023-06-24T02:34:22;0.30;;;0.30;;
63394;SDS011;49531;-34.520;150.798;2023-06-24T02:36:51;0.40;;;0.40;;
63394;SDS011;49531;-34.520;150.798;2023-06-24T02:39:18;0.40;;;0.40;;
63394;SDS011;49531;-34.520;150.798;2023-06-24T02:41:46;0.73;;;0.30;;
63394;SDS011;49531;-34.520;150.798;2023-06-24T02:44:16;0.47;;;0.40;;
63394;SDS011;49531;-34.520;150.798;2023-06-24T02:46:43;0.43;;;0.30;;
63394;SDS011;49531;-34.520;150.798;2023-06-24T02:49:13;0.47;;;0.40;;
63394;SDS011;49531;-34.520;150.798;2023-06-24T02:51:43;0.70;;;0.30;;
63394;SDS011;49531;-34.520;150.798;2023-06-24T02:54:11;0.30;;;0.30;;
63394;SDS011;49531;-34.520;150.798;2023-06-24T02:56:39;0.30;;;0.30;;
63394;SDS011;49531;-34.520;150.798;2023-06-24T02:59:10;0.30;;;0.30;;
63394;SDS011;49531;-34.520;150.798;2023-06-24T03:01:37;0.40;;;0.32;;
63394;SDS011;49531;-34.520;150.798;2023-06-24T03:04:10;0.35;;;0.30;;
63394;SDS011;49531;-34.520;150.798;2023-06-24T03:06:38;0.73;;;0.40;;
63394;SDS011;49531;-34.520;150.798;2023-06-24T03:09:06;0.40;;;0.40;;
63394;SDS011;49531;-34.520;150.798;2023-06-24T03:11:42;0.60;;;0.30;;
63394;SDS011;49531;-34.520;150.798;2023-06-24T03:14:09;0.43;;;0.30;;
63394;SDS011;49531;-34.520;150.798;2023-06-24T03:16:38;0.50;;;0.30;;
63394;SDS011;49531;-34.520;150.798;2023-06-24T03:19:05;0.38;;;0.30;;
63394;SDS011;49531;-34.520;150.798;2023-06-24T03:21:33;0.38;;;0.30;;
63394;SDS011;49531;-34.520;150.798;2023-06-24T03:24:00;0.20;;;0.20;;
63394;SDS011;49531;-34.520;150.798;2023-06-24T03:26:32;0.35;;;0.25;;
63394;SDS011;49531;-34.520;150.798;2023-06-24T03:29:04;0.30;;;0.30;;
63394;SDS011;49531;-34.520;150.798;2023-06-24T03:31:33;0.65;;;0.30;;
63394;SDS011;49531;-34.520;150.798;2023-06-24T03:34:00;0.35;;;0.30;;
63394;SDS011;49531;-34.520;150.798;2023-06-24T03:36:28;1.55;;;0.30;;
63394;SDS011;49531;-34.520;150.798;2023-06-24T03:38:56;0.30;;;0.30;;
63394;SDS011;49531;-34.520;150.798;2023-06-24T03:41:23;0.30;;;0.30;;
63394;SDS011;49531;-34.520;150.798;2023-06-24T03:43:51;0.40;;;0.40;;
63394;SDS011;49531;-34.520;150.798;2023-06-24T03:46:19;0.30;;;0.30;;
63394;SDS011;49531;-34.520;150.798;2023-06-24T03:48:46;0.60;;;0.30;;
63394;SDS011;49531;-34.520;150.798;2023-06-24T03:51:13;0.30;;;0.30;;
63394;SDS011;49531;-34.520;150.798;2023-06-24T03:53:40;0.70;;;0.40;;
63394;SDS011;49531;-34.520;150.798;2023-06-24T03:56:08;0.30;;;0.30;;
63394;SDS011;49531;-34.520;150.798;2023-06-24T03:58:35;0.40;;;0.38;;
63394;SDS011;49531;-34.520;150.798;2023-06-24T04:01:02;0.52;;;0.40;;
63394;SDS011;49531;-34.520;150.798;2023-06-24T04:03:29;0.30;;;0.30;;
63394;SDS011;49531;-34.520;150.798;2023-06-24T04:05:57;0.30;;;0.30;;
63394;SDS011;49531;-34.520;150.798;2023-06-24T04:08:27;0.40;;;0.40;;
63394;SDS011;49531;-34.520;150.798;2023-06-24T04:10:55;0.40;;;0.40;;
63394;SDS011;49531;-34.520;150.798;2023-06-24T04:13:29;0.30;;;0.30;;
63394;SDS011;49531;-34.520;150.798;2023-06-24T04:15:56;0.40;;;0.30;;
63394;SDS011;49531;-34.520;150.798;2023-06-24T04:18:23;0.30;;;0.30;;
63394;SDS011;49531;-34.520;150.798;2023-06-24T04:20:51;0.22;;;0.22;;
63394;SDS011;49531;-34.520;150.798;2023-06-24T04:23:18;0.45;;;0.45;;
63394;SDS011;49531;-34.520;150.798;2023-06-24T04:25:45;0.30;;;0.30;;
63394;SDS011;49531;-34.520;150.798;2023-06-24T04:28:13;0.30;;;0.30;;
63394;SDS011;49531;-34.520;150.798;2023-06-24T04:30:40;0.30;;;0.30;;
63394;SDS011;49531;-34.520;150.798;2023-06-24T04:33:07;0.68;;;0.68;;
63394;SDS011;49531;-34.520;150.798;2023-06-24T04:35:34;0.70;;;0.70;;
63394;SDS011;49531;-34.520;150.798;2023-06-24T04:38:02;1.30;;;1.20;;
63394;SDS011;49531;-34.520;150.798;2023-06-24T04:40:29;0.70;;;0.60;;
63394;SDS011;49531;-34.520;150.798;2023-06-24T04:42:57;0.60;;;0.60;;
63394;SDS011;49531;-34.520;150.798;2023-06-24T04:45:24;0.60;;;0.60;;
63394;SDS011;49531;-34.520;150.798;2023-06-24T04:47:52;0.95;;;0.95;;
63394;SDS011;49531;-34.520;150.798;2023-06-24T04:50:19;0.95;;;0.80;;
63394;SDS011;49531;-34.520;150.798;2023-06-24T04:52:53;0.70;;;0.70;;
63394;SDS011;49531;-34.520;150.798;2023-06-24T04:55:22;0.77;;;0.77;;
63394;SDS011;49531;-34.520;150.798;2023-06-24T04:57:49;0.70;;;0.70;;
63394;SDS011;49531;-34.520;150.798;2023-06-24T05:00:16;0.93;;;0.70;;
63394;SDS011;49531;-34.520;150.798;2023-06-24T05:02:44;0.60;;;0.60;;
63394;SDS011;49531;-34.520;150.798;2023-06-24T05:05:11;0.73;;;0.70;;
63394;SDS011;49531;-34.520;150.798;2023-06-24T05:07:38;1.45;;;0.75;;
63394;SDS011;49531;-34.520;150.798;2023-06-24T05:10:05;0.90;;;0.80;;
63394;SDS011;49531;-34.520;150.798;2023-06-24T05:12:33;0.80;;;0.80;;
63394;SDS011;49531;-34.520;150.798;2023-06-24T05:15:00;1.10;;;1.00;;
63394;SDS011;49531;-34.520;150.798;2023-06-24T05:17:28;0.80;;;0.80;;
63394;SDS011;49531;-34.520;150.798;2023-06-24T05:19:55;1.15;;;0.90;;
63394;SDS011;49531;-34.520;150.798;2023-06-24T05:22:22;1.83;;;0.82;;
63394;SDS011;49531;-34.520;150.798;2023-06-24T05:24:51;1.02;;;0.90;;
63394;SDS011;49531;-34.520;150.798;2023-06-24T05:27:18;2.15;;;0.80;;
63394;SDS011;49531;-34.520;150.798;2023-06-24T05:29:45;0.80;;;0.80;;
63394;SDS011;49531;-34.520;150.798;2023-06-24T05:32:12;0.90;;;0.90;;
63394;SDS011;49531;-34.520;150.798;2023-06-24T05:34:39;0.60;;;0.60;;
63394;SDS011;49531;-34.520;150.798;2023-06-24T05:37:07;0.85;;;0.70;;
63394;SDS011;49531;-34.520;150.798;2023-06-24T05:39:34;1.05;;;0.70;;
63394;SDS011;49531;-34.520;150.798;2023-06-24T05:42:01;0.77;;;0.70;;
63394;SDS011;49531;-34.520;150.798;2023-06-24T05:44:28;0.60;;;0.60;;
63394;SDS011;49531;-34.520;150.798;2023-06-24T05:46:55;0.63;;;0.57;;
63394;SDS011;49531;-34.520;150.798;2023-06-24T05:49:23;0.60;;;0.60;;
63394;SDS011;49531;-34.520;150.798;2023-06-24T05:51:50;0.60;;;0.60;;
63394;SDS011;49531;-34.520;150.798;2023-06-24T05:54:18;0.65;;;0.65;;
63394;SDS011;49531;-34.520;150.798;2023-06-24T05:56:45;1.00;;;0.70;;
63394;SDS011;49531;-34.520;150.798;2023-06-24T05:59:12;0.50;;;0.50;;
63394;SDS011;49531;-34.520;150.798;2023-06-24T06:01:39;0.60;;;0.60;;
63394;SDS011;49531;-34.520;150.798;2023-06-24T06:04:06;0.60;;;0.60;;
63394;SDS011;49531;-34.520;150.798;2023-06-24T06:06:33;0.60;;;0.60;;
63394;SDS011;49531;-34.520;150.798;2023-06-24T06:09:00;0.50;;;0.50;;
63394;SDS011;49531;-34.520;150.798;2023-06-24T06:11:28;0.50;;;0.50;;
63394;SDS011;49531;-34.520;150.798;2023-06-24T06:13:55;0.60;;;0.60;;
63394;SDS011;49531;-34.520;150.798;2023-06-24T06:16:22;1.40;;;0.60;;
63394;SDS011;49531;-34.520;150.798;2023-06-24T06:18:49;0.57;;;0.57;;
63394;SDS011;49531;-34.520;150.798;2023-06-24T06:21:17;0.60;;;0.60;;
63394;SDS011;49531;-34.520;150.798;2023-06-24T06:23:44;0.60;;;0.60;;
63394;SDS011;49531;-34.520;150.798;2023-06-24T06:26:11;0.60;;;0.60;;
63394;SDS011;49531;-34.520;150.798;2023-06-24T06:28:39;0.68;;;0.60;;
63394;SDS011;49531;-34.520;150.798;2023-06-24T06:31:06;0.50;;;0.50;;
63394;SDS011;49531;-34.520;150.798;2023-06-24T06:33:33;0.50;;;0.50;;
63394;SDS011;49531;-34.520;150.798;2023-06-24T06:36:00;0.60;;;0.60;;
63394;SDS011;49531;-34.520;150.798;2023-06-24T06:38:27;0.80;;;0.70;;
63394;SDS011;49531;-34.520;150.798;2023-06-24T06:40:54;0.50;;;0.50;;
63394;SDS011;49531;-34.520;150.798;2023-06-24T06:43:21;0.50;;;0.50;;
63394;SDS011;49531;-34.520;150.798;2023-06-24T06:45:48;0.68;;;0.60;;
63394;SDS011;49531;-34.520;150.798;2023-06-24T06:48:15;0.50;;;0.50;;
63394;SDS011;49531;-34.520;150.798;2023-06-24T06:50:43;0.60;;;0.60;;
63394;SDS011;49531;-34.520;150.798;2023-06-24T06:53:12;0.60;;;0.60;;
63394;SDS011;49531;-34.520;150.798;2023-06-24T06:55:39;1.58;;;0.80;;
63394;SDS011;49531;-34.520;150.798;2023-06-24T06:58:08;0.60;;;0.60;;
63394;SDS011;49531;-34.520;150.798;2023-06-24T07:00:36;1.13;;;1.00;;
63394;SDS011;49531;-34.520;150.798;2023-06-24T07:03:03;1.27;;;1.17;;
63394;SDS011;49531;-34.520;150.798;2023-06-24T07:05:30;0.90;;;0.90;;
63394;SDS011;49531;-34.520;150.798;2023-06-24T07:07:57;1.00;;;1.00;;
63394;SDS011;49531;-34.520;150.798;2023-06-24T07:10:24;1.13;;;1.05;;
63394;SDS011;49531;-34.520;150.798;2023-06-24T07:12:51;3.50;;;2.33;;
63394;SDS011;49531;-34.520;150.798;2023-06-24T07:15:25;2.92;;;2.28;;
63394;SDS011;49531;-34.520;150.798;2023-06-24T07:17:52;2.83;;;2.00;;
63394;SDS011;49531;-34.520;150.798;2023-06-24T07:20:20;2.38;;;2.17;;
63394;SDS011;49531;-34.520;150.798;2023-06-24T07:22:48;4.47;;;3.10;;
63394;SDS011;49531;-34.520;150.798;2023-06-24T07:25:16;3.80;;;3.30;;
63394;SDS011;49531;-34.520;150.798;2023-06-24T07:27:43;3.10;;;2.80;;
63394;SDS011;49531;-34.520;150.798;2023-06-24T07:30:10;3.10;;;2.65;;
63394;SDS011;49531;-34.520;150.798;2023-06-24T07:32:38;2.95;;;2.15;;
63394;SDS011;49531;-34.520;150.798;2023-06-24T07:35:05;2.63;;;2.03;;
63394;SDS011;49531;-34.520;150.798;2023-06-24T07:37:34;2.50;;;2.08;;
63394;SDS011;49531;-34.520;150.798;2023-06-24T07:40:01;1.80;;;1.70;;
63394;SDS011;49531;-34.520;150.798;2023-06-24T07:42:30;2.60;;;1.90;;
63394;SDS011;49531;-34.520;150.798;2023-06-24T07:44:57;1.60;;;1.50;;
63394;SDS011;49531;-34.520;150.798;2023-06-24T07:47:24;1.80;;;1.58;;
63394;SDS011;49531;-34.520;150.798;2023-06-24T07:49:51;2.10;;;1.55;;
63394;SDS011;49531;-34.520;150.798;2023-06-24T07:52:18;1.77;;;1.67;;
63394;SDS011;49531;-34.520;150.798;2023-06-24T07:54:45;2.10;;;1.90;;
63394;SDS011;49531;-34.520;150.798;2023-06-24T07:57:13;2.40;;;1.63;;
63394;SDS011;49531;-34.520;150.798;2023-06-24T07:59:40;2.40;;;1.60;;
63394;SDS011;49531;-34.520;150.798;2023-06-24T08:02:08;1.77;;;1.60;;
63394;SDS011;49531;-34.520;150.798;2023-06-24T08:04:36;2.05;;;1.50;;
63394;SDS011;49531;-34.520;150.798;2023-06-24T08:07:03;1.70;;;1.60;;
63394;SDS011;49531;-34.520;150.798;2023-06-24T08:09:30;1.70;;;1.60;;
63394;SDS011;49531;-34.520;150.798;2023-06-24T08:11:58;2.55;;;2.35;;
63394;SDS011;49531;-34.520;150.798;2023-06-24T08:14:25;2.42;;;2.00;;
63394;SDS011;49531;-34.520;150.798;2023-06-24T08:16:52;2.00;;;1.80;;
63394;SDS011;49531;-34.520;150.798;2023-06-24T08:19:19;2.08;;;1.88;;
63394;SDS011;49531;-34.520;150.798;2023-06-24T08:21:46;2.30;;;1.73;;
63394;SDS011;49531;-34.520;150.798;2023-06-24T08:24:13;2.03;;;1.70;;
63394;SDS011;49531;-34.520;150.798;2023-06-24T08:26:40;1.63;;;1.50;;
63394;SDS011;49531;-34.520;150.798;2023-06-24T08:29:08;1.55;;;1.30;;
63394;SDS011;49531;-34.520;150.798;2023-06-24T08:31:35;1.55;;;1.40;;
63394;SDS011;49531;-34.520;150.798;2023-06-24T08:34:02;1.67;;;1.50;;
63394;SDS011;49531;-34.520;150.798;2023-06-24T08:36:32;2.00;;;1.80;;
63394;SDS011;49531;-34.520;150.798;2023-06-24T08:38:59;2.10;;;1.90;;
63394;SDS011;49531;-34.520;150.798;2023-06-24T08:41:26;2.10;;;1.90;;
63394;SDS011;49531;-34.520;150.798;2023-06-24T08:43:53;2.40;;;2.17;;
63394;SDS011;49531;-34.520;150.798;2023-06-24T08:46:21;2.55;;;2.20;;
63394;SDS011;49531;-34.520;150.798;2023-06-24T08:51:43;2.83;;;2.20;;
63394;SDS011;49531;-34.520;150.798;2023-06-24T08:54:13;3.20;;;2.30;;
63394;SDS011;49531;-34.520;150.798;2023-06-24T08:56:41;2.55;;;2.15;;
63394;SDS011;49531;-34.520;150.798;2023-06-24T08:59:09;2.33;;;2.13;;
63394;SDS011;49531;-34.520;150.798;2023-06-24T09:01:36;2.40;;;2.10;;
63394;SDS011;49531;-34.520;150.798;2023-06-24T09:04:03;2.70;;;2.10;;
63394;SDS011;49531;-34.520;150.798;2023-06-24T09:06:31;3.25;;;2.10;;
63394;SDS011;49531;-34.520;150.798;2023-06-24T09:08:59;3.00;;;2.40;;
63394;SDS011;49531;-34.520;150.798;2023-06-24T09:11:27;3.15;;;2.45;;
63394;SDS011;49531;-34.520;150.798;2023-06-24T09:13:55;2.78;;;2.30;;
63394;SDS011;49531;-34.520;150.798;2023-06-24T09:16:23;3.40;;;2.40;;
63394;SDS011;49531;-34.520;150.798;2023-06-24T09:18:50;4.05;;;2.50;;
63394;SDS011;49531;-34.520;150.798;2023-06-24T09:21:25;2.80;;;2.20;;
63394;SDS011;49531;-34.520;150.798;2023-06-24T09:23:56;3.00;;;2.40;;
63394;SDS011;49531;-34.520;150.798;2023-06-24T09:26:24;3.53;;;2.40;;
63394;SDS011;49531;-34.520;150.798;2023-06-24T09:28:52;3.15;;;2.60;;
63394;SDS011;49531;-34.520;150.798;2023-06-24T09:31:20;3.78;;;2.30;;
63394;SDS011;49531;-34.520;150.798;2023-06-24T09:33:49;4.97;;;2.40;;
63394;SDS011;49531;-34.520;150.798;2023-06-24T09:36:16;3.25;;;2.53;;
63394;SDS011;49531;-34.520;150.798;2023-06-24T09:38:44;4.03;;;2.17;;
63394;SDS011;49531;-34.520;150.798;2023-06-24T09:41:11;5.05;;;2.33;;
63394;SDS011;49531;-34.520;150.798;2023-06-24T09:43:40;2.78;;;2.28;;
63394;SDS011;49531;-34.520;150.798;2023-06-24T09:46:10;3.88;;;2.20;;
63394;SDS011;49531;-34.520;150.798;2023-06-24T09:48:38;2.40;;;2.13;;
63394;SDS011;49531;-34.520;150.798;2023-06-24T09:51:05;3.22;;;2.45;;
63394;SDS011;49531;-34.520;150.798;2023-06-24T09:53:34;4.10;;;2.90;;
63394;SDS011;49531;-34.520;150.798;2023-06-24T09:56:04;3.10;;;2.60;;
63394;SDS011;49531;-34.520;150.798;2023-06-24T09:58:35;2.92;;;2.30;;
63394;SDS011;49531;-34.520;150.798;2023-06-24T10:01:04;2.90;;;2.22;;
63394;SDS011;49531;-34.520;150.798;2023-06-24T10:03:34;2.42;;;2.10;;
63394;SDS011;49531;-34.520;150.798;2023-06-24T10:06:03;3.33;;;2.15;;
63394;SDS011;49531;-34.520;150.798;2023-06-24T10:08:32;2.88;;;2.50;;
63394;SDS011;49531;-34.520;150.798;2023-06-24T10:11:09;2.10;;;1.90;;
63394;SDS011;49531;-34.520;150.798;2023-06-24T10:13:37;2.65;;;1.95;;
63394;SDS011;49531;-34.520;150.798;2023-06-24T10:16:04;2.40;;;1.67;;
63394;SDS011;49531;-34.520;150.798;2023-06-24T10:18:33;2.03;;;1.80;;
63394;SDS011;49531;-34.520;150.798;2023-06-24T10:21:03;2.00;;;1.80;;
63394;SDS011;49531;-34.520;150.798;2023-06-24T10:23:33;1.92;;;1.80;;
63394;SDS011;49531;-34.520;150.798;2023-06-24T10:26:08;2.30;;;1.80;;
63394;SDS011;49531;-34.520;150.798;2023-06-24T10:29:25;2.33;;;1.83;;
63394;SDS011;49531;-34.520;150.798;2023-06-24T10:31:51;1.67;;;1.58;;
63394;SDS011;49531;-34.520;150.798;2023-06-24T10:37:01;1.40;;;1.30;;
63394;SDS011;49531;-34.520;150.798;2023-06-24T10:39:39;1.60;;;1.40;;
63394;SDS011;49531;-34.520;150.798;2023-06-24T10:42:26;1.35;;;1.20;;
63394;SDS011;49531;-34.520;150.798;2023-06-24T10:44:55;1.70;;;1.55;;
63394;SDS011;49531;-34.520;150.798;2023-06-24T10:47:24;4.40;;;1.40;;
63394;SDS011;49531;-34.520;150.798;2023-06-24T10:49:52;2.03;;;1.25;;
63394;SDS011;49531;-34.520;150.798;2023-06-24T10:52:20;1.50;;;1.40;;
63394;SDS011;49531;-34.520;150.798;2023-06-24T10:54:49;2.15;;;1.42;;
63394;SDS011;49531;-34.520;150.798;2023-06-24T10:57:21;1.42;;;1.30;;
63394;SDS011;49531;-34.520;150.798;2023-06-24T10:59:50;1.45;;;1.35;;
63394;SDS011;49531;-34.520;150.798;2023-06-24T11:02:19;1.20;;;1.10;;
63394;SDS011;49531;-34.520;150.798;2023-06-24T11:04:49;1.17;;;1.08;;
63394;SDS011;49531;-34.520;150.798;2023-06-24T11:07:18;1.40;;;1.30;;
63394;SDS011;49531;-34.520;150.798;2023-06-24T11:09:48;1.60;;;1.50;;
63394;SDS011;49531;-34.520;150.798;2023-06-24T11:12:19;1.50;;;1.40;;
63394;SDS011;49531;-34.520;150.798;2023-06-24T11:14:51;1.40;;;1.20;;
63394;SDS011;49531;-34.520;150.798;2023-06-24T11:17:23;1.30;;;1.20;;
63394;SDS011;49531;-34.520;150.798;2023-06-24T11:19:54;1.30;;;1.20;;
63394;SDS011;49531;-34.520;150.798;2023-06-24T11:22:23;1.42;;;1.20;;
63394;SDS011;49531;-34.520;150.798;2023-06-24T11:24:52;1.27;;;1.15;;
63394;SDS011;49531;-34.520;150.798;2023-06-24T11:27:24;1.00;;;1.00;;
63394;SDS011;49531;-34.520;150.798;2023-06-24T11:32:20;0.90;;;0.90;;
63394;SDS011;49531;-34.520;150.798;2023-06-24T11:34:48;1.10;;;1.00;;
63394;SDS011;49531;-34.520;150.798;2023-06-24T11:37:17;0.90;;;0.90;;
63394;SDS011;49531;-34.520;150.798;2023-06-24T11:39:45;1.10;;;1.00;;
63394;SDS011;49531;-34.520;150.798;2023-06-24T11:42:27;1.20;;;1.00;;
63394;SDS011;49531;-34.520;150.798;2023-06-24T11:45:03;1.02;;;1.00;;
63394;SDS011;49531;-34.520;150.798;2023-06-24T11:47:35;0.90;;;0.90;;
63394;SDS011;49531;-34.520;150.798;2023-06-24T11:50:03;0.80;;;0.80;;
63394;SDS011;49531;-34.520;150.798;2023-06-24T11:52:38;1.38;;;0.80;;
63394;SDS011;49531;-34.520;150.798;2023-06-24T11:55:11;0.70;;;0.70;;
63394;SDS011;49531;-34.520;150.798;2023-06-24T11:57:49;0.63;;;0.63;;
63394;SDS011;49531;-34.520;150.798;2023-06-24T12:00:19;0.75;;;0.75;;
63394;SDS011;49531;-34.520;150.798;2023-06-24T12:02:53;2.15;;;0.73;;
63394;SDS011;49531;-34.520;150.798;2023-06-24T12:05:23;0.75;;;0.75;;
63394;SDS011;49531;-34.520;150.798;2023-06-24T12:07:54;0.70;;;0.70;;
63394;SDS011;49531;-34.520;150.798;2023-06-24T12:10:23;0.68;;;0.68;;
63394;SDS011;49531;-34.520;150.798;2023-06-24T12:12:51;2.03;;;0.60;;
63394;SDS011;49531;-34.520;150.798;2023-06-24T12:15:18;1.33;;;0.70;;
63394;SDS011;49531;-34.520;150.798;2023-06-24T12:17:45;0.60;;;0.60;;
63394;SDS011;49531;-34.520;150.798;2023-06-24T12:20:13;0.60;;;0.60;;
63394;SDS011;49531;-34.520;150.798;2023-06-24T12:22:41;0.63;;;0.63;;
63394;SDS011;49531;-34.520;150.798;2023-06-24T12:25:08;0.60;;;0.60;;
63394;SDS011;49531;-34.520;150.798;2023-06-24T12:27:36;0.60;;;0.60;;
63394;SDS011;49531;-34.520;150.798;2023-06-24T12:30:04;0.60;;;0.60;;
63394;SDS011;49531;-34.520;150.798;2023-06-24T12:32:32;0.60;;;0.60;;
63394;SDS011;49531;-34.520;150.798;2023-06-24T12:34:59;0.60;;;0.60;;
63394;SDS011;49531;-34.520;150.798;2023-06-24T12:37:29;0.85;;;0.60;;
63394;SDS011;49531;-34.520;150.798;2023-06-24T12:39:58;0.63;;;0.63;;
63394;SDS011;49531;-34.520;150.798;2023-06-24T12:42:26;0.50;;;0.50;;
63394;SDS011;49531;-34.520;150.798;2023-06-24T12:44:54;0.50;;;0.50;;
63394;SDS011;49531;-34.520;150.798;2023-06-24T12:47:21;0.60;;;0.60;;
63394;SDS011;49531;-34.520;150.798;2023-06-24T12:49:49;0.52;;;0.52;;
63394;SDS011;49531;-34.520;150.798;2023-06-24T12:52:16;0.60;;;0.60;;
63394;SDS011;49531;-34.520;150.798;2023-06-24T12:54:43;0.50;;;0.50;;
63394;SDS011;49531;-34.520;150.798;2023-06-24T12:57:11;0.60;;;0.60;;
63394;SDS011;49531;-34.520;150.798;2023-06-24T12:59:38;0.70;;;0.70;;
63394;SDS011;49531;-34.520;150.798;2023-06-24T13:02:05;0.70;;;0.70;;
63394;SDS011;49531;-34.520;150.798;2023-06-24T13:04:32;0.60;;;0.60;;
63394;SDS011;49531;-34.520;150.798;2023-06-24T13:06:59;0.75;;;0.75;;
63394;SDS011;49531;-34.520;150.798;2023-06-24T13:09:28;1.30;;;1.20;;
63394;SDS011;49531;-34.520;150.798;2023-06-24T13:11:56;1.00;;;0.90;;
63394;SDS011;49531;-34.520;150.798;2023-06-24T13:14:23;1.30;;;1.20;;
63394;SDS011;49531;-34.520;150.798;2023-06-24T13:16:54;1.80;;;1.50;;
63394;SDS011;49531;-34.520;150.798;2023-06-24T13:19:21;1.52;;;1.42;;
63394;SDS011;49531;-34.520;150.798;2023-06-24T13:21:50;1.92;;;1.65;;
63394;SDS011;49531;-34.520;150.798;2023-06-24T13:24:17;1.80;;;1.70;;
63394;SDS011;49531;-34.520;150.798;2023-06-24T13:26:44;2.63;;;1.63;;
63394;SDS011;49531;-34.520;150.798;2023-06-24T13:29:11;1.90;;;1.70;;
63394;SDS011;49531;-34.520;150.798;2023-06-24T13:31:39;1.67;;;1.58;;
63394;SDS011;49531;-34.520;150.798;2023-06-24T13:34:06;1.77;;;1.60;;
63394;SDS011;49531;-34.520;150.798;2023-06-24T13:36:34;1.83;;;1.60;;
63394;SDS011;49531;-34.520;150.798;2023-06-24T13:39:03;1.70;;;1.60;;
63394;SDS011;49531;-34.520;150.798;2023-06-24T13:41:32;1.52;;;1.42;;
63394;SDS011;49531;-34.520;150.798;2023-06-24T13:44:00;2.75;;;1.50;;
63394;SDS011;49531;-34.520;150.798;2023-06-24T13:46:28;1.85;;;1.67;;
63394;SDS011;49531;-34.520;150.798;2023-06-24T13:48:57;1.50;;;1.40;;
63394;SDS011;49531;-34.520;150.798;2023-06-24T13:51:25;1.52;;;1.33;;
63394;SDS011;49531;-34.520;150.798;2023-06-24T13:53:53;1.30;;;1.20;;
63394;SDS011;49531;-34.520;150.798;2023-06-24T13:56:21;1.13;;;1.02;;
63394;SDS011;49531;-34.520;150.798;2023-06-24T13:58:50;1.13;;;1.02;;
63394;SDS011;49531;-34.520;150.798;2023-06-24T14:01:18;1.17;;;0.93;;
63394;SDS011;49531;-34.520;150.798;2023-06-24T14:03:46;1.83;;;1.10;;
63394;SDS011;49531;-34.520;150.798;2023-06-24T14:06:15;1.20;;;1.10;;
63394;SDS011;49531;-34.520;150.798;2023-06-24T14:08:44;0.90;;;0.90;;
63394;SDS011;49531;-34.520;150.798;2023-06-24T14:11:12;0.88;;;0.88;;
63394;SDS011;49531;-34.520;150.798;2023-06-24T14:13:40;1.00;;;0.90;;
63394;SDS011;49531;-34.520;150.798;2023-06-24T14:16:08;0.75;;;0.75;;
63394;SDS011;49531;-34.520;150.798;2023-06-24T14:18:36;1.00;;;0.88;;
63394;SDS011;49531;-34.520;150.798;2023-06-24T14:21:04;0.80;;;0.80;;
63394;SDS011;49531;-34.520;150.798;2023-06-24T14:23:33;1.65;;;0.85;;
63394;SDS011;49531;-34.520;150.798;2023-06-24T14:26:01;1.98;;;0.70;;
63394;SDS011;49531;-34.520;150.798;2023-06-24T14:28:29;0.70;;;0.70;;